KUNU/UNU METAR and TAF weather

Enter ICAO airport designator
Station Type Date Time Source
KUNU METAR 2021/07/27 22:35 UTC NOAA

KUNU 272235Z AUTO 00000KT 10SM CLR 29/18 A3001 RMK AO2 T02880182


Station Type Date Time Source
KUNU Decoded METAR 2021/07/27 22:35 UTC NOAA

Juneau, Dodge County Airport, WI, United States (KUNU) 43-25-36N 088-42-12W
Jul 27, 2021 - 06:35 PM EDT / 2021.07.27 2235 UTC
Wind: Calm:0
Visibility: 10 mile(s):0
Sky conditions: clear
Temperature: 83.8 F (28.8 C)
Dew Point: 64.8 F (18.2 C)
Relative Humidity: 52%
Pressure (altimeter): 30.01 in. Hg (1016 hPa)
ob: KUNU 272235Z AUTO 00000KT 10SM CLR 29/18 A3001 RMK AO2 T02880182
cycle: 22

Station Type Date Time Source
KUNU TAF UTC NOAA

Error!

Example: see airport list